Placida, FL (33947)

8:01 AM EDT on October 24, 2014 (GMT -0400)
Rotonda West | Change Station
CLOSE
Current Station
Personal Weather Station
Location: Rotonda West, FL
Elevation: 12 ft
Nearby Weather Stations

Elev 12 ft 26.91 °N, 82.30 °W | Updated 51 seconds ago

Partly Cloudy
Partly Cloudy
63.9 °F
Feels Like 63.9 °F
N
2.0
Wind Variable Wind from NNE
Gusts 2.0 mph

Today
High -- | Low -- °F
--% Chance of Precip.
Yesterday
High -- | Low -- °F
Precip. -- in
7:33 AM 6:52 PM
New Moon, 0% visible
Pressure 29.96 in
Visibility 10.0 miles
Clouds Few 4100 ft
Dew Point 59 °F
Humidity 84%
Rainfall 0.00 in
Snow Depth Not available.
UV 0 out of 12
Pollen 6.20 out of 12
Air Quality Not available.
Flu Activity Local Activity
METAR KPGD 241153Z 03007KT 10SM FEW041 17/14 A2995 RMK AO2 SLP144 T01720144 10183 20172 53012

More Conditions Fewer Conditions

Pressure 29.96 in
Visibility 10.0 miles
Clouds Few 4100 ft
Dew Point 59 °F
Humidity 84%
Rainfall 0.00 in
Snow Depth Not available.
UV 0 out of 12
Pollen 6.20 out of 12
Air Quality Not available.
Flu Activity Local Activity
METAR KPGD 241153Z 03007KT 10SM FEW041 17/14 A2995 RMK AO2 SLP144 T01720144 10183 20172 53012

More Conditions Fewer Conditions

10-Day Weather Forecast

Almanac

Astronomy

Oct. 24, 2014 Rise Set
Actual Time 7:33 AM EDT 6:52 PM EDT
Civil Twilight 7:10 AM EDT 7:16 PM EDT
Nautical Twilight 6:42 AM EDT 7:43 PM EDT
Astronomical Twilight 6:15 AM EDT 8:10 PM EDT
Moon 8:09 AM EDT 7:35 PM EDT
Length of Visible Light 12h 05m
Length of Day
11h 18m
Tomorrow will be 1m 28s shorter.
New Moon, 0% of the Moon is Illuminated
Today
New Moon
Oct 30
First Quarter
Nov 6
Full
Nov 14
Last Quarter
Nov 22
New

Today's Extremes

State Highs State Lows

Community

WunderPhotos

Upload Photos

1,764,528 photos uploaded!

Nearby

Snow Depth

Station Depth Elevation
No new snow has been reported.

Earthquake Activity

City Distance Mag. Time & Date
No recent earthquake activity has been reported nearby.
Minimum magnitude displayed is 2.5.

Coastal Water Temperatures

Place Temperature
Fort Myers, FL 78.1 °F
Naples, FL 81.0 °F

Nearby Weather Stations